Time;durP1;ratioP1;P1;durP2;ratioP2;P2;SDS_P1;SDS_P2;PMS_P1;PMS_P2;Temp;Humidity;BMP_temperature;BMP_pressure;BME280_temperature;BME280_humidity;BME280_pressure;Samples;Min_cycle;Max_cycle;Signal;HPM_P1;HPM_P2
2023/06/12 00:01:02;;;;;;;6.00;3.30;;;18.50;49.60;;;;;;5019838;28;20033;-61
2023/06/12 00:03:29;;;;;;;5.82;3.42;;;18.40;49.70;;;;;;5040780;28;20045;-62
2023/06/12 00:05:59;;;;;;;6.18;3.10;;;18.40;50.00;;;;;;5041842;28;20094;-61
2023/06/12 00:08:33;;;;;;;5.00;2.72;;;18.30;50.10;;;;;;5042841;28;20068;-61
2023/06/12 00:10:59;;;;;;;5.90;2.65;;;18.30;50.60;;;;;;5033824;28;20448;-62
2023/06/12 00:13:25;;;;;;;5.70;2.83;;;18.30;50.60;;;;;;5036994;28;20033;-62
2023/06/12 00:15:50;;;;;;;7.13;3.08;;;18.20;50.80;;;;;;5035744;28;20071;-61
2023/06/12 00:18:17;;;;;;;6.28;3.10;;;18.20;51.10;;;;;;5042102;28;20450;-61
2023/06/12 00:20:43;;;;;;;5.57;2.70;;;18.10;51.10;;;;;;5034038;28;20171;-62
2023/06/12 00:23:11;;;;;;;3.28;2.80;;;18.10;51.30;;;;;;5039992;28;20124;-62
2023/06/12 00:25:39;;;;;;;6.95;2.78;;;17.90;51.60;;;;;;5035657;28;20039;-61
2023/06/12 00:28:05;;;;;;;5.43;2.80;;;17.90;51.90;;;;;;5039337;28;20468;-62
2023/06/12 00:30:30;;;;;;;8.45;2.67;;;17.90;52.10;;;;;;5037496;28;20580;-61
2023/06/12 00:32:56;;;;;;;8.23;3.00;;;17.80;52.10;;;;;;5037880;28;20231;-62
2023/06/12 00:35:21;;;;;;;3.85;2.60;;;17.70;52.20;;;;;;5040907;28;20479;-61
2023/06/12 00:37:47;;;;;;;5.15;2.60;;;17.70;52.40;;;;;;5015352;28;20045;-61
2023/06/12 00:40:13;;;;;;;3.85;2.47;;;17.60;52.60;;;;;;5035168;28;20052;-63
2023/06/12 00:42:46;;;;;;;4.95;2.55;;;17.60;52.90;;;;;;5047850;28;20040;-61
2023/06/12 00:45:13;;;;;;;4.18;2.47;;;17.50;53.00;;;;;;5033488;28;20132;-61
2023/06/12 00:47:39;;;;;;;5.20;3.05;;;17.50;53.10;;;;;;5044886;28;20057;-62
2023/06/12 00:50:08;;;;;;;4.10;2.70;;;17.50;53.30;;;;;;5042148;28;20440;-61
2023/06/12 00:52:34;;;;;;;7.45;2.90;;;17.40;53.40;;;;;;5045401;28;20377;-62
2023/06/12 00:55:01;;;;;;;5.18;2.90;;;17.40;53.70;;;;;;5035676;28;20053;-60
2023/06/12 00:57:27;;;;;;;4.05;2.63;;;17.30;53.80;;;;;;5044957;28;20311;-62
2023/06/12 00:59:54;;;;;;;6.10;3.30;;;17.30;53.90;;;;;;5035594;28;20052;-61
2023/06/12 01:02:21;;;;;;;3.92;2.45;;;17.30;54.20;;;;;;5039056;28;20041;-63
2023/06/12 01:04:49;;;;;;;4.75;2.75;;;17.20;54.30;;;;;;5036330;28;20091;-62
2023/06/12 01:07:29;;;;;;;7.18;3.30;;;17.20;54.40;;;;;;5026955;28;20376;-61
2023/06/12 01:10:25;;;;;;;6.22;2.80;;;17.10;54.90;;;;;;5036903;28;20052;-61
2023/06/12 01:12:53;;;;;;;5.50;2.88;;;17.10;55.40;;;;;;5043164;28;20074;-61
2023/06/12 01:15:18;;;;;;;5.97;2.80;;;17.00;55.00;;;;;;5038211;28;20029;-61
2023/06/12 01:17:44;;;;;;;5.80;2.80;;;16.90;55.20;;;;;;5037867;28;21041;-63
2023/06/12 01:20:12;;;;;;;3.30;2.50;;;16.80;55.50;;;;;;5036116;28;20037;-61
2023/06/12 01:22:53;;;;;;;7.28;3.10;;;16.80;56.00;;;;;;5035209;28;20033;-62
2023/06/12 01:25:36;;;;;;;6.00;3.03;;;16.80;56.10;;;;;;5056239;28;20040;-62
2023/06/12 01:28:39;;;;;;;5.10;2.60;;;16.70;56.20;;;;;;5038536;28;20045;-61
2023/06/12 01:31:23;;;;;;;8.70;3.05;;;16.70;57.00;;;;;;5035455;28;20041;-61
2023/06/12 01:34:02;;;;;;;3.17;2.53;;;16.60;57.50;;;;;;5035745;28;20045;-62
2023/06/12 01:36:32;;;;;;;10.10;3.53;;;16.50;57.50;;;;;;5042115;28;20067;-61
2023/06/12 01:39:00;;;;;;;4.78;2.70;;;16.50;57.40;;;;;;5039583;28;20788;-61
2023/06/12 01:41:28;;;;;;;6.82;3.20;;;16.40;57.50;;;;;;5044583;28;20040;-62
2023/06/12 01:43:53;;;;;;;4.50;2.72;;;16.30;57.70;;;;;;5045796;28;20075;-60
2023/06/12 01:46:19;;;;;;;6.85;2.92;;;16.30;58.00;;;;;;5028468;28;20076;-61
2023/06/12 01:48:44;;;;;;;4.75;2.80;;;16.30;58.10;;;;;;5033252;28;20052;-62
2023/06/12 01:51:10;;;;;;;3.78;2.60;;;16.20;58.40;;;;;;5045801;28;20040;-60
2023/06/12 01:53:35;;;;;;;7.25;3.15;;;16.20;58.50;;;;;;5040408;28;20124;-61
2023/06/12 01:56:01;;;;;;;7.00;2.80;;;16.20;58.60;;;;;;5043079;28;20052;-61
2023/06/12 01:58:27;;;;;;;4.80;2.72;;;16.20;58.80;;;;;;5027791;28;20140;-61
2023/06/12 02:00:53;;;;;;;5.65;2.80;;;16.20;58.90;;;;;;5049374;28;20051;-61
2023/06/12 02:03:22;;;;;;;3.58;2.42;;;16.20;59.00;;;;;;5035340;28;20109;-63
2023/06/12 02:05:48;;;;;;;9.48;2.80;;;16.20;59.10;;;;;;5037948;28;20116;-61
2023/06/12 02:08:14;;;;;;;5.72;2.78;;;16.10;59.20;;;;;;5039196;28;20041;-61
2023/06/12 02:10:39;;;;;;;9.40;3.35;;;16.10;59.40;;;;;;5047413;28;20078;-62
2023/06/12 02:13:05;;;;;;;4.88;2.50;;;16.00;59.50;;;;;;5044546;28;20071;-62
2023/06/12 02:15:31;;;;;;;6.55;2.88;;;16.00;59.70;;;;;;5038885;28;20051;-60
2023/06/12 02:17:56;;;;;;;5.93;2.80;;;15.90;59.60;;;;;;5047954;28;20045;-61
2023/06/12 02:20:22;;;;;;;8.05;3.03;;;15.90;59.80;;;;;;5033493;28;20095;-60
2023/06/12 02:22:47;;;;;;;4.57;2.47;;;15.90;60.00;;;;;;5031018;28;20040;-62
2023/06/12 02:25:13;;;;;;;5.05;2.95;;;15.80;60.10;;;;;;5037361;28;20041;-61
2023/06/12 02:27:39;;;;;;;7.70;2.92;;;15.80;60.30;;;;;;5028385;28;20127;-61
2023/06/12 02:30:05;;;;;;;5.65;2.83;;;15.80;60.40;;;;;;5042252;28;20037;-62
2023/06/12 02:32:33;;;;;;;7.43;3.28;;;15.80;60.60;;;;;;5038244;28;20590;-61
2023/06/12 02:35:00;;;;;;;4.00;2.72;;;15.80;60.70;;;;;;5039106;28;20037;-61
2023/06/12 02:37:27;;;;;;;5.78;2.97;;;15.80;60.80;;;;;;5033410;28;20103;-61
2023/06/12 02:39:53;;;;;;;6.93;3.22;;;15.80;61.00;;;;;;5036222;28;20048;-61
2023/06/12 02:42:19;;;;;;;5.25;2.78;;;15.70;61.40;;;;;;5044326;28;20033;-61
2023/06/12 02:44:45;;;;;;;5.95;2.60;;;15.70;61.50;;;;;;5035367;28;20119;-61
2023/06/12 02:47:10;;;;;;;8.20;3.17;;;15.60;61.80;;;;;;5037156;28;20049;-61
2023/06/12 02:49:38;;;;;;;6.45;3.15;;;15.50;62.00;;;;;;5042884;28;20056;-61
2023/06/12 02:52:04;;;;;;;9.10;3.25;;;15.40;62.20;;;;;;5037378;28;20041;-61
2023/06/12 02:54:30;;;;;;;8.10;2.80;;;15.40;62.40;;;;;;5036491;28;20051;-61
2023/06/12 02:56:55;;;;;;;9.15;3.05;;;15.40;62.70;;;;;;5039952;28;20484;-61
2023/06/12 02:59:23;;;;;;;7.13;3.10;;;15.40;62.80;;;;;;5037455;28;20365;-61
2023/06/12 03:01:49;;;;;;;7.15;3.20;;;15.40;63.00;;;;;;5040350;28;20049;-61
2023/06/12 03:04:20;;;;;;;8.98;3.40;;;15.40;63.00;;;;;;5036847;28;20044;-60
2023/06/12 03:06:52;;;;;;;8.05;3.45;;;15.40;63.30;;;;;;5041538;28;20040;-61
2023/06/12 03:09:18;;;;;;;6.10;3.25;;;15.40;63.40;;;;;;5039840;28;20056;-61
2023/06/12 03:11:44;;;;;;;7.75;3.65;;;15.30;63.40;;;;;;5037387;28;20411;-61
2023/06/12 03:14:09;;;;;;;5.75;3.05;;;15.30;63.60;;;;;;5045084;28;20124;-60
2023/06/12 03:16:36;;;;;;;3.83;3.10;;;15.30;63.70;;;;;;5045787;28;20121;-61
2023/06/12 03:19:02;;;;;;;6.45;3.25;;;15.30;63.90;;;;;;5037099;28;20153;-61
2023/06/12 03:21:27;;;;;;;6.43;3.25;;;15.20;64.10;;;;;;5039016;28;20055;-61
2023/06/12 03:23:53;;;;;;;6.40;3.70;;;15.20;64.40;;;;;;5043217;28;20140;-60
2023/06/12 03:26:19;;;;;;;10.05;3.72;;;15.00;64.50;;;;;;5046383;28;20427;-61
2023/06/12 03:28:45;;;;;;;9.85;3.80;;;15.00;64.60;;;;;;5040708;28;20827;-62
2023/06/12 03:31:12;;;;;;;6.68;3.42;;;15.00;64.90;;;;;;5028769;28;20036;-62
2023/06/12 03:33:37;;;;;;;6.53;3.53;;;15.00;65.10;;;;;;5043211;28;20147;-62
2023/06/12 03:36:03;;;;;;;7.00;3.45;;;15.00;65.30;;;;;;5046738;28;20136;-61
2023/06/12 03:38:29;;;;;;;6.85;4.35;;;14.90;65.20;;;;;;5043734;28;20069;-60
2023/06/12 03:40:54;;;;;;;5.25;3.50;;;14.80;65.60;;;;;;5036389;28;20043;-61
2023/06/12 03:43:20;;;;;;;9.40;3.83;;;14.70;65.80;;;;;;5039658;28;20372;-61
2023/06/12 03:45:46;;;;;;;6.90;4.53;;;14.60;66.20;;;;;;5043905;28;20330;-61
2023/06/12 03:48:12;;;;;;;5.90;3.40;;;14.50;66.70;;;;;;5046643;28;20049;-61
2023/06/12 03:50:38;;;;;;;4.88;3.30;;;14.60;66.90;;;;;;5037108;28;20049;-63
2023/06/12 03:53:03;;;;;;;5.50;3.30;;;14.50;66.90;;;;;;5029684;28;20434;-62
2023/06/12 03:55:29;;;;;;;9.30;3.30;;;14.40;67.30;;;;;;5041234;28;20140;-61
2023/06/12 03:57:55;;;;;;;10.77;3.97;;;14.40;67.50;;;;;;5029594;28;20073;-61
2023/06/12 04:00:21;;;;;;;6.32;3.55;;;14.30;67.70;;;;;;5033987;28;20057;-61
2023/06/12 04:02:47;;;;;;;6.15;3.60;;;14.20;68.30;;;;;;5036451;28;20542;-61
2023/06/12 04:05:12;;;;;;;7.50;3.80;;;14.30;68.30;;;;;;5041441;28;20515;-61
2023/06/12 04:07:38;;;;;;;6.07;3.33;;;14.30;68.40;;;;;;5042947;28;20136;-61
2023/06/12 04:10:05;;;;;;;8.75;3.83;;;14.30;68.50;;;;;;5035228;28;20046;-61
2023/06/12 04:12:31;;;;;;;7.63;3.90;;;14.40;68.60;;;;;;5038192;28;20067;-61
2023/06/12 04:14:57;;;;;;;6.90;3.40;;;14.40;68.50;;;;;;5035382;28;20040;-61
2023/06/12 04:17:23;;;;;;;5.22;3.65;;;14.40;68.60;;;;;;5039618;28;20052;-61
2023/06/12 04:19:49;;;;;;;4.90;3.50;;;14.40;68.70;;;;;;5042102;28;20032;-61
2023/06/12 04:22:16;;;;;;;8.95;4.18;;;14.40;68.90;;;;;;5043436;28;20044;-61
2023/06/12 04:24:43;;;;;;;8.50;4.45;;;14.40;68.90;;;;;;5042391;28;20416;-61
2023/06/12 04:27:12;;;;;;;6.53;3.65;;;14.50;69.20;;;;;;5040155;28;20496;-62
2023/06/12 04:29:38;;;;;;;8.50;4.10;;;14.50;69.50;;;;;;5036590;28;20037;-62
2023/06/12 04:32:07;;;;;;;6.40;3.78;;;14.50;69.20;;;;;;5031760;28;20455;-61
2023/06/12 04:34:45;;;;;;;7.03;3.78;;;14.50;70.30;;;;;;5039116;28;20084;-61
2023/06/12 04:37:19;;;;;;;7.50;4.10;;;14.60;69.80;;;;;;5030640;28;20060;-66
2023/06/12 04:39:45;;;;;;;8.18;4.07;;;14.70;69.50;;;;;;5039226;28;20037;-61
2023/06/12 04:42:16;;;;;;;6.82;3.80;;;14.80;69.50;;;;;;5043380;28;20056;-61
2023/06/12 04:44:42;;;;;;;6.25;4.15;;;14.90;69.40;;;;;;5048544;28;20036;-62
2023/06/12 04:47:10;;;;;;;8.80;4.60;;;15.00;69.10;;;;;;5039331;28;20069;-62
2023/06/12 04:49:48;;;;;;;7.22;4.22;;;15.10;69.10;;;;;;5029926;28;20053;-61
2023/06/12 04:52:14;;;;;;;10.82;4.20;;;15.10;69.10;;;;;;5034321;28;20044;-61
2023/06/12 04:54:41;;;;;;;6.85;4.35;;;15.30;69.00;;;;;;5035672;28;20449;-61
2023/06/12 04:57:12;;;;;;;8.38;4.28;;;15.40;68.70;;;;;;5039032;28;20068;-60
2023/06/12 04:59:42;;;;;;;8.52;4.95;;;15.60;68.50;;;;;;5043884;28;21828;-61
2023/06/12 05:02:08;;;;;;;8.00;4.05;;;15.60;69.00;;;;;;5044824;28;20515;-62
2023/06/12 05:04:38;;;;;;;6.40;4.45;;;15.70;68.10;;;;;;5035776;28;20036;-61
2023/06/12 05:07:17;;;;;;;8.00;3.80;;;15.90;68.10;;;;;;5047851;28;20048;-61
2023/06/12 05:09:46;;;;;;;10.90;4.70;;;16.10;68.30;;;;;;5044399;28;20448;-62
2023/06/12 05:12:12;;;;;;;8.07;4.70;;;16.20;68.20;;;;;;5043075;28;20048;-61
2023/06/12 05:14:43;;;;;;;7.40;4.03;;;16.50;68.00;;;;;;5044260;28;20400;-62
2023/06/12 05:17:09;;;;;;;10.45;4.72;;;16.60;67.70;;;;;;5033882;28;20378;-62
2023/06/12 05:19:35;;;;;;;6.25;4.63;;;16.70;68.20;;;;;;5036460;28;20033;-63
2023/06/12 05:22:01;;;;;;;8.15;4.10;;;17.00;67.20;;;;;;5022892;28;20059;-62
2023/06/12 05:24:27;;;;;;;8.05;4.43;;;17.10;66.80;;;;;;5027845;28;20173;-61
2023/06/12 05:26:53;;;;;;;10.75;4.40;;;17.30;66.50;;;;;;5052298;28;20432;-62
2023/06/12 05:29:18;;;;;;;8.50;4.47;;;17.50;66.20;;;;;;5039751;28;20462;-61
2023/06/12 05:31:44;;;;;;;8.95;4.50;;;17.60;65.70;;;;;;5029000;28;20038;-62
2023/06/12 05:34:10;;;;;;;7.28;4.13;;;17.70;65.30;;;;;;5030924;28;20045;-61
2023/06/12 05:36:36;;;;;;;7.50;4.53;;;17.80;65.10;;;;;;5052189;28;20829;-61
2023/06/12 05:39:03;;;;;;;10.73;4.75;;;17.90;64.90;;;;;;5038358;28;20045;-62
2023/06/12 05:41:28;;;;;;;6.97;4.07;;;18.00;64.60;;;;;;5038209;28;20033;-62
2023/06/12 05:43:54;;;;;;;7.55;4.45;;;18.20;64.30;;;;;;5033445;28;20037;-61
2023/06/12 05:46:20;;;;;;;10.18;4.68;;;18.30;64.00;;;;;;5012867;28;20087;-64
2023/06/12 05:48:45;;;;;;;9.20;4.43;;;18.40;63.50;;;;;;5032149;28;20056;-62
2023/06/12 05:51:11;;;;;;;8.68;4.20;;;18.50;63.20;;;;;;5045974;28;20090;-63
2023/06/12 05:53:36;;;;;;;8.50;4.22;;;18.70;62.80;;;;;;5042473;28;20155;-62
2023/06/12 05:56:02;;;;;;;9.60;4.65;;;18.90;62.40;;;;;;5037778;28;20476;-63
2023/06/12 05:58:28;;;;;;;9.23;4.60;;;19.00;62.20;;;;;;5041224;28;20040;-62
2023/06/12 06:00:55;;;;;;;9.45;3.83;;;19.20;61.80;;;;;;5040175;28;20049;-62
2023/06/12 06:03:23;;;;;;;5.95;4.28;;;19.30;61.40;;;;;;5052151;28;20140;-63
2023/06/12 06:05:49;;;;;;;7.13;4.72;;;19.60;60.80;;;;;;5026842;28;20320;-62
2023/06/12 06:08:15;;;;;;;8.38;5.00;;;19.70;60.50;;;;;;5031631;28;20091;-62
2023/06/12 06:10:41;;;;;;;9.98;4.75;;;19.90;60.20;;;;;;5043705;28;20564;-61
2023/06/12 06:13:07;;;;;;;9.57;4.75;;;20.10;59.60;;;;;;5037459;28;20033;-62
2023/06/12 06:15:33;;;;;;;9.75;4.03;;;20.10;59.30;;;;;;5039208;28;20055;-62
2023/06/12 06:17:58;;;;;;;7.30;4.47;;;20.30;59.10;;;;;;5038543;28;20444;-62
2023/06/12 06:20:24;;;;;;;8.35;4.65;;;20.50;58.70;;;;;;5037158;28;20037;-62
2023/06/12 06:22:51;;;;;;;7.63;4.72;;;20.70;58.30;;;;;;5034782;28;20048;-62
2023/06/12 06:25:17;;;;;;;11.00;5.13;;;20.80;57.70;;;;;;5032213;28;20120;-62
2023/06/12 06:27:42;;;;;;;8.65;4.07;;;20.90;57.50;;;;;;5034338;28;20491;-62
2023/06/12 06:30:08;;;;;;;7.18;5.20;;;21.10;57.30;;;;;;5047629;28;20115;-62
2023/06/12 06:32:34;;;;;;;7.75;4.32;;;21.10;56.80;;;;;;5035500;28;20732;-64
2023/06/12 06:35:00;;;;;;;8.48;5.22;;;21.30;56.40;;;;;;5032836;28;20046;-62
2023/06/12 06:37:25;;;;;;;6.47;4.85;;;21.50;56.10;;;;;;5024101;28;20056;-64
2023/06/12 06:39:51;;;;;;;15.73;5.07;;;21.60;56.10;;;;;;5053946;28;20321;-63
2023/06/12 06:42:16;;;;;;;6.50;4.28;;;21.80;55.90;;;;;;5046912;28;20139;-63
2023/06/12 06:44:42;;;;;;;11.07;5.00;;;21.90;55.70;;;;;;5041192;28;20039;-63
2023/06/12 06:47:10;;;;;;;9.20;5.03;;;22.10;55.20;;;;;;5023671;28;20089;-62
2023/06/12 06:49:37;;;;;;;7.88;4.55;;;22.30;54.30;;;;;;5044200;28;20102;-64
2023/06/12 06:52:04;;;;;;;7.10;4.90;;;22.40;54.30;;;;;;5046149;28;20164;-63
2023/06/12 06:54:29;;;;;;;7.75;4.47;;;22.60;53.90;;;;;;5046443;28;20056;-63
2023/06/12 06:56:56;;;;;;;9.77;4.45;;;22.70;53.50;;;;;;5030387;28;20045;-63
2023/06/12 06:59:22;;;;;;;7.35;4.18;;;23.00;53.10;;;;;;5033784;28;20414;-64
2023/06/12 07:01:48;;;;;;;8.40;4.68;;;23.10;52.80;;;;;;5023464;28;20155;-63
2023/06/12 07:04:13;;;;;;;6.72;4.70;;;23.30;52.30;;;;;;5035927;28;20128;-62
2023/06/12 07:06:39;;;;;;;6.40;3.33;;;23.30;52.20;;;;;;5029214;28;20037;-63
2023/06/12 07:09:05;;;;;;;8.55;5.10;;;23.50;52.00;;;;;;5035087;28;20053;-63
2023/06/12 07:11:30;;;;;;;8.73;4.50;;;23.70;51.60;;;;;;5025390;28;20033;-63
2023/06/12 07:13:57;;;;;;;8.90;5.10;;;23.90;51.00;;;;;;5035144;28;20111;-62
2023/06/12 07:16:23;;;;;;;7.85;4.85;;;24.10;50.40;;;;;;5034875;28;20041;-65
2023/06/12 07:18:48;;;;;;;7.18;4.82;;;24.20;49.90;;;;;;5034184;28;20037;-63
2023/06/12 07:21:14;;;;;;;6.35;4.70;;;24.40;49.50;;;;;;5034583;28;20065;-64
2023/06/12 07:23:40;;;;;;;7.53;4.43;;;24.40;49.20;;;;;;5024096;28;20046;-64
2023/06/12 07:26:05;;;;;;;8.57;5.05;;;24.70;48.80;;;;;;5044425;28;20045;-63
2023/06/12 07:28:31;;;;;;;6.10;4.07;;;24.80;48.20;;;;;;5044328;28;20044;-63
2023/06/12 07:30:56;;;;;;;12.27;4.70;;;25.10;47.50;;;;;;5039089;28;20409;-63
2023/06/12 07:33:22;;;;;;;7.45;5.22;;;25.20;46.90;;;;;;5034035;28;20038;-63
2023/06/12 07:35:47;;;;;;;8.48;4.75;;;25.30;46.30;;;;;;5026495;28;20049;-63
2023/06/12 07:38:13;;;;;;;8.55;4.90;;;25.40;46.20;;;;;;5029770;28;20087;-63
2023/06/12 07:40:39;;;;;;;10.52;4.80;;;25.70;45.80;;;;;;5042921;28;21362;-63
2023/06/12 07:43:05;;;;;;;9.77;4.40;;;25.90;45.80;;;;;;5040279;28;20073;-64
2023/06/12 07:45:31;;;;;;;7.15;4.93;;;25.90;45.50;;;;;;5035250;28;20065;-64
2023/06/12 07:47:57;;;;;;;8.38;4.95;;;26.10;44.90;;;;;;5040967;28;20107;-62
2023/06/12 07:50:24;;;;;;;12.32;4.90;;;26.10;44.50;;;;;;5002871;28;20174;-63
2023/06/12 07:52:49;;;;;;;8.25;4.97;;;26.20;44.20;;;;;;5028659;28;20060;-63
2023/06/12 07:55:16;;;;;;;7.18;4.47;;;26.30;44.10;;;;;;5044813;28;20045;-62
2023/06/12 07:57:41;;;;;;;8.73;4.75;;;26.50;43.80;;;;;;5048298;28;20033;-63
2023/06/12 08:00:08;;;;;;;10.15;4.82;;;26.60;43.70;;;;;;5051512;28;20527;-63
2023/06/12 08:02:34;;;;;;;7.90;4.40;;;26.80;43.20;;;;;;5046489;28;20476;-65
2023/06/12 08:05:00;;;;;;;7.70;4.38;;;27.00;42.80;;;;;;5045753;28;20068;-64
2023/06/12 08:07:26;;;;;;;7.82;4.18;;;27.30;41.70;;;;;;5049140;28;20041;-64
2023/06/12 08:09:52;;;;;;;7.95;4.97;;;27.40;41.00;;;;;;5050170;28;20075;-63
2023/06/12 08:12:19;;;;;;;12.05;4.82;;;27.50;40.80;;;;;;5052224;28;20041;-63
2023/06/12 08:14:47;;;;;;;6.55;4.85;;;27.70;40.60;;;;;;5039801;28;20041;-64
2023/06/12 08:17:13;;;;;;;8.52;4.70;;;28.00;40.30;;;;;;5046041;28;20061;-64
2023/06/12 08:19:41;;;;;;;7.05;3.80;;;28.00;39.80;;;;;;5049629;28;20048;-65
2023/06/12 08:22:09;;;;;;;5.25;4.43;;;28.40;39.50;;;;;;5040321;28;20468;-64
2023/06/12 08:24:36;;;;;;;6.63;4.13;;;28.70;38.90;;;;;;5045192;28;20183;-63
2023/06/12 08:27:02;;;;;;;10.10;4.25;;;29.00;38.20;;;;;;5041538;28;20048;-64
2023/06/12 08:29:28;;;;;;;7.78;4.07;;;29.10;37.50;;;;;;5050811;28;20120;-63
2023/06/12 08:31:54;;;;;;;6.65;4.53;;;29.30;36.90;;;;;;5049766;28;20045;-64
2023/06/12 08:34:24;;;;;;;8.15;4.82;;;29.50;36.20;;;;;;5051670;28;20136;-66
2023/06/12 08:36:53;;;;;;;5.22;3.70;;;29.70;36.00;;;;;;5039188;28;20063;-63
2023/06/12 08:39:18;;;;;;;6.03;4.60;;;29.60;35.70;;;;;;5048355;28;20036;-63
2023/06/12 08:42:00;;;;;;;6.78;4.78;;;29.80;34.80;;;;;;5050035;28;20361;-63
2023/06/12 08:44:26;;;;;;;5.13;4.10;;;29.70;33.00;;;;;;5025487;28;20033;-63
2023/06/12 08:46:56;;;;;;;5.00;4.30;;;29.60;33.60;;;;;;5045008;28;20041;-63
2023/06/12 08:49:21;;;;;;;7.40;4.05;;;29.70;33.80;;;;;;5031445;28;20045;-62
2023/06/12 08:51:49;;;;;;;6.88;4.72;;;30.00;33.40;;;;;;5027533;28;20544;-64
2023/06/12 08:54:15;;;;;;;6.35;4.30;;;30.60;32.90;;;;;;5041235;28;20080;-63
2023/06/12 08:56:48;;;;;;;5.88;4.30;;;31.00;32.30;;;;;;5039007;28;20799;-65
2023/06/12 08:59:14;;;;;;;6.40;4.15;;;31.30;31.60;;;;;;5042929;28;20656;-63
2023/06/12 09:01:40;;;;;;;8.55;4.55;;;31.50;31.30;;;;;;5032948;28;20469;-63
2023/06/12 09:04:21;;;;;;;6.00;4.68;;;31.80;31.10;;;;;;5046743;28;20045;-64
2023/06/12 09:06:49;;;;;;;6.10;4.63;;;31.50;31.00;;;;;;5039070;28;20481;-64
2023/06/12 09:09:15;;;;;;;8.70;4.90;;;31.50;30.90;;;;;;5034199;28;20046;-64
2023/06/12 09:11:41;;;;;;;5.28;4.07;;;32.00;30.60;;;;;;5038605;28;20052;-63
2023/06/12 09:14:08;;;;;;;5.13;4.10;;;32.30;30.20;;;;;;5041212;28;20128;-64
2023/06/12 09:16:33;;;;;;;8.30;4.32;;;32.60;30.20;;;;;;5038374;28;20065;-65
2023/06/12 09:18:59;;;;;;;5.10;4.20;;;33.30;29.80;;;;;;5048495;28;20468;-63
2023/06/12 09:21:25;;;;;;;7.00;4.68;;;33.60;29.40;;;;;;5047246;28;20538;-63
2023/06/12 09:23:52;;;;;;;8.07;4.43;;;34.00;29.00;;;;;;5032720;28;20128;-64
2023/06/12 09:26:21;;;;;;;11.93;4.35;;;34.20;28.50;;;;;;5030595;28;20421;-63
2023/06/12 09:28:53;;;;;;;7.37;4.60;;;34.10;27.90;;;;;;5028699;28;20059;-63
2023/06/12 09:31:19;;;;;;;6.95;4.40;;;34.20;27.80;;;;;;5040002;28;20045;-64
2023/06/12 09:33:44;;;;;;;5.25;4.18;;;34.70;27.80;;;;;;5039977;28;20045;-65
2023/06/12 09:36:12;;;;;;;5.35;4.47;;;35.20;27.00;;;;;;5046223;28;20060;-65
2023/06/12 09:38:38;;;;;;;8.18;4.75;;;35.40;26.60;;;;;;5048885;28;20077;-64
2023/06/12 09:41:06;;;;;;;6.25;4.13;;;35.50;26.00;;;;;;5045231;28;20033;-64
2023/06/12 09:43:32;;;;;;;7.88;4.80;;;35.70;25.70;;;;;;5035250;28;20044;-64
2023/06/12 09:46:01;;;;;;;5.60;4.60;;;35.80;25.10;;;;;;5045234;28;20081;-65
2023/06/12 09:48:37;;;;;;;5.00;4.50;;;35.90;25.10;;;;;;5040758;28;20153;-64
2023/06/12 09:51:13;;;;;;;6.93;4.93;;;35.80;24.80;;;;;;5043235;28;20435;-64
2023/06/12 09:53:39;;;;;;;6.78;4.63;;;35.70;24.90;;;;;;5037722;28;20118;-64
2023/06/12 09:56:07;;;;;;;8.52;5.38;;;36.10;25.10;;;;;;5043945;28;20086;-64
2023/06/12 09:58:37;;;;;;;6.10;4.30;;;36.60;24.80;;;;;;5040435;28;20091;-65
2023/06/12 10:01:06;;;;;;;6.07;4.75;;;36.90;24.70;;;;;;5038817;28;20060;-65
2023/06/12 10:03:37;;;;;;;5.75;4.20;;;37.20;24.20;;;;;;5039874;28;20051;-66
2023/06/12 10:06:06;;;;;;;6.47;4.90;;;37.60;23.60;;;;;;5019295;28;20041;-64
2023/06/12 10:08:33;;;;;;;10.85;4.97;;;37.40;23.50;;;;;;5043983;28;20044;-65
2023/06/12 10:10:59;;;;;;;8.77;4.60;;;37.70;23.20;;;;;;5042851;28;20136;-64
2023/06/12 10:13:25;;;;;;;6.30;4.60;;;38.00;23.00;;;;;;5048940;28;20119;-65
2023/06/12 10:15:51;;;;;;;5.55;4.78;;;38.20;22.90;;;;;;5045903;28;20037;-62
2023/06/12 10:18:17;;;;;;;6.00;4.93;;;38.10;23.00;;;;;;5044926;28;20353;-64
2023/06/12 10:20:45;;;;;;;6.32;5.30;;;38.40;22.50;;;;;;5048274;28;20045;-65
2023/06/12 10:23:11;;;;;;;7.80;4.72;;;38.40;22.30;;;;;;5044850;28;20051;-63
2023/06/12 10:25:38;;;;;;;8.60;4.90;;;38.50;22.40;;;;;;5041855;28;20036;-63
2023/06/12 10:28:05;;;;;;;5.82;4.65;;;39.10;22.10;;;;;;5036933;28;20053;-64
2023/06/12 10:30:31;;;;;;;6.15;4.97;;;39.30;22.10;;;;;;5035344;28;20107;-64
2023/06/12 10:33:13;;;;;;;6.88;5.15;;;39.60;22.00;;;;;;5042118;28;20037;-64
2023/06/12 10:35:39;;;;;;;6.35;5.05;;;39.80;20.80;;;;;;5036338;28;20040;-64
2023/06/12 10:38:04;;;;;;;7.05;4.93;;;40.00;20.70;;;;;;5017623;28;20049;-63
2023/06/12 10:40:31;;;;;;;5.28;4.70;;;40.20;20.60;;;;;;5026905;28;20112;-64
2023/06/12 10:43:04;;;;;;;6.22;5.55;;;40.50;20.10;;;;;;5025091;28;20106;-64
2023/06/12 10:45:31;;;;;;;5.13;4.60;;;40.50;19.20;;;;;;5029518;28;20127;-63
2023/06/12 10:50:31;;;;;;;5.90;5.05;;;40.30;19.60;;;;;;5035506;28;20056;-65
2023/06/12 10:52:59;;;;;;;8.93;4.97;;;40.70;19.40;;;;;;5020104;28;20472;-64
2023/06/12 10:55:28;;;;;;;7.60;5.28;;;40.00;19.50;;;;;;5037772;28;20072;-65
2023/06/12 10:57:59;;;;;;;7.47;5.53;;;38.90;19.30;;;;;;5043430;28;20595;-64
2023/06/12 11:00:30;;;;;;;5.47;4.45;;;37.60;20.20;;;;;;5039429;28;20045;-64
2023/06/12 11:02:57;;;;;;;7.10;5.60;;;36.40;21.10;;;;;;5047228;28;20167;-63
2023/06/12 11:05:24;;;;;;;5.82;5.22;;;35.30;21.80;;;;;;5044224;28;20036;-64
2023/06/12 11:07:50;;;;;;;6.22;5.57;;;34.60;22.40;;;;;;5044402;28;20053;-63
2023/06/12 11:10:16;;;;;;;5.57;5.10;;;34.10;22.90;;;;;;5045032;28;20041;-65
2023/06/12 11:12:51;;;;;;;6.75;5.15;;;33.50;23.20;;;;;;5044001;28;20078;-63
2023/06/12 11:15:17;;;;;;;6.80;5.45;;;32.90;22.80;;;;;;5031827;28;20065;-66
2023/06/12 11:17:43;;;;;;;8.27;5.70;;;32.80;23.40;;;;;;5047306;28;20037;-63
2023/06/12 11:20:09;;;;;;;6.32;5.72;;;32.30;23.60;;;;;;5047909;28;20119;-64
2023/06/12 11:22:35;;;;;;;6.53;5.82;;;32.10;23.90;;;;;;5040386;28;20033;-63
2023/06/12 11:25:05;;;;;;;6.07;5.20;;;31.70;24.10;;;;;;5035913;28;20048;-63
2023/06/12 11:27:31;;;;;;;6.78;5.88;;;31.70;24.30;;;;;;5034941;28;20092;-62
2023/06/12 11:30:06;;;;;;;6.38;5.78;;;31.40;24.40;;;;;;5032608;28;20076;-63
2023/06/12 11:32:31;;;;;;;9.60;6.05;;;31.20;24.50;;;;;;5035636;28;20033;-63
2023/06/12 11:34:57;;;;;;;7.35;6.28;;;31.00;25.00;;;;;;5029219;28;20489;-64
2023/06/12 11:37:25;;;;;;;7.32;6.20;;;30.80;25.10;;;;;;5031259;28;20098;-67
2023/06/12 11:40:09;;;;;;;7.10;5.47;;;30.90;24.90;;;;;;5038287;28;20166;-64
2023/06/12 11:42:40;;;;;;;7.95;5.85;;;31.00;24.20;;;;;;5042138;28;20187;-65
2023/06/12 11:45:14;;;;;;;6.35;5.68;;;31.10;24.30;;;;;;5039736;28;20050;-62
2023/06/12 11:47:44;;;;;;;6.57;5.78;;;31.00;24.70;;;;;;5037240;28;20061;-61
2023/06/12 11:50:12;;;;;;;6.75;5.93;;;30.70;24.60;;;;;;5041046;28;20381;-63
2023/06/12 11:52:40;;;;;;;8.85;6.25;;;30.70;24.70;;;;;;5037451;28;20155;-65
2023/06/12 11:55:08;;;;;;;9.70;6.20;;;30.70;23.50;;;;;;5036903;28;20053;-66
2023/06/12 11:57:35;;;;;;;7.32;6.22;;;30.50;23.40;;;;;;5039695;28;20368;-66
2023/06/12 12:00:14;;;;;;;6.20;5.60;;;30.80;23.30;;;;;;5043449;28;20052;-63
2023/06/12 12:02:51;;;;;;;7.38;5.93;;;30.60;23.10;;;;;;5033601;28;20040;-64
2023/06/12 12:05:22;;;;;;;6.55;5.93;;;30.70;23.10;;;;;;5021923;28;20417;-64
2023/06/12 12:07:56;;;;;;;7.97;6.07;;;30.90;23.20;;;;;;5033768;28;20041;-63
2023/06/12 12:10:22;;;;;;;7.15;5.53;;;30.80;24.30;;;;;;5044431;28;20389;-65
2023/06/12 12:12:50;;;;;;;7.45;6.13;;;30.90;24.40;;;;;;5044522;28;20040;-62
2023/06/12 12:15:18;;;;;;;7.57;6.10;;;30.90;23.70;;;;;;5041689;28;20112;-62
2023/06/12 12:17:44;;;;;;;6.88;5.85;;;30.80;23.80;;;;;;5043976;28;20037;-63
2023/06/12 12:20:18;;;;;;;6.82;6.13;;;31.00;24.40;;;;;;5028171;28;20044;-65
2023/06/12 12:22:47;;;;;;;6.97;6.28;;;31.70;22.80;;;;;;5042656;28;20037;-63
2023/06/12 12:25:22;;;;;;;7.87;6.63;;;32.40;22.10;;;;;;5026810;28;20045;-63
2023/06/12 12:27:50;;;;;;;8.27;6.70;;;33.50;21.30;;;;;;5039450;28;20087;-64
2023/06/12 12:30:16;;;;;;;7.05;6.32;;;32.90;21.10;;;;;;5032108;28;20053;-66
2023/06/12 12:32:47;;;;;;;7.53;6.63;;;33.00;21.20;;;;;;5044534;28;20047;-63
2023/06/12 12:35:14;;;;;;;6.88;6.15;;;34.70;21.00;;;;;;5045371;28;20045;-63
2023/06/12 12:37:40;;;;;;;6.70;6.10;;;36.00;19.80;;;;;;5041816;28;20044;-64
2023/06/12 12:40:09;;;;;;;7.60;6.30;;;36.70;19.00;;;;;;5035104;28;20047;-65
2023/06/12 12:42:36;;;;;;;6.55;5.95;;;37.50;19.20;;;;;;5045224;28;20144;-65
2023/06/12 12:45:02;;;;;;;8.85;6.32;;;37.90;19.40;;;;;;5047154;28;20441;-64
2023/06/12 12:47:28;;;;;;;7.70;6.38;;;38.50;18.90;;;;;;5049759;28;20088;-65
2023/06/12 12:49:54;;;;;;;7.53;5.88;;;38.90;18.10;;;;;;5049314;28;20119;-64